Time;durP1;ratioP1;P1;durP2;ratioP2;P2;SDS_P1;SDS_P2;PMS_P1;PMS_P2;Temp;Humidity;BMP_temperature;BMP_pressure;BME280_temperature;BME280_humidity;BME280_pressure;Samples;Min_cycle;Max_cycle;Signal;HPM_P1;HPM_P2
2021/07/12 07:02:25;;;;;;;;;;;;;;;;;;5057880;23;19974;-61
2021/07/12 07:04:51;;;;;;;;;;;;;;;;;;5051751;28;19908;-61
2021/07/12 07:07:17;;;;;;;;;;;;;;;;;;5049131;28;19947;-61
2021/07/12 07:09:43;;;;;;;;;;;;;;;;;;5052884;28;19905;-61
2021/07/12 07:12:09;;;;;;;;;;;;;;;;;;5046917;28;20234;-62
2021/07/12 07:14:35;;;;;;;;;;;;;;;;;;5046737;28;19952;-61
2021/07/12 07:17:01;;;;;;;;;;;;;;;;;;5051708;28;19908;-61
2021/07/12 07:19:27;;;;;;;;;;;;;;;;;;5047992;28;19905;-61
2021/07/12 07:21:54;;;;;;;;;;;;;;;;;;5051926;28;19952;-61
2021/07/12 07:24:20;;;;;;;;;;;;;;;;;;5052741;28;19964;-61
2021/07/12 07:26:46;;;;;;;;;;;;;;;;;;5053623;28;19979;-61
2021/07/12 07:29:12;;;;;;;;;;;;;;;;;;5052072;28;20000;-61
2021/07/12 07:31:38;;;;;;;;;;;;;;;;;;5052683;28;19912;-61
2021/07/12 07:34:04;;;;;;;;;;;;;;;;;;5050198;28;19940;-61
2021/07/12 07:36:30;;;;;;;;;;;;;;;;;;5064417;28;20233;-63
2021/07/12 07:38:56;;;;;;;;;;;;;;;;;;5052816;28;20316;-53
2021/07/12 07:41:23;;;;;;;;;;;;;;;;;;5051370;28;19905;-57
2021/07/12 07:43:49;;;;;;;;;;;;;;;;;;5046520;28;19992;-51
2021/07/12 07:46:15;;;;;;;;;;;;;;;;;;5042655;28;20427;-57
2021/07/12 07:48:41;;;;;;;;;;;;;;;;;;5052660;28;19959;-59
2021/07/12 07:51:06;;;;;;;;;;;;;;;;;;5052303;28;19960;-56
2021/07/12 07:53:32;;;;;;;;;;;;;;;;;;5051920;28;20015;-59
2021/07/12 07:55:58;;;;;;;;;;;;;;;;;;5051566;28;19928;-56
2021/07/12 07:58:24;;;;;;;;;;;;;;;;;;5052107;28;20050;-57
2021/07/12 08:00:50;;;;;;;;;;;;;;;;;;5052101;28;20015;-57
2021/07/12 08:03:16;;;;;;;;;;;;;;;;;;5041372;28;19966;-57
2021/07/12 08:05:42;;;;;;;;;;;;;;;;;;5036311;28;20352;-55
2021/07/12 08:08:08;;;;;;;;;;;;;;;;;;5036546;28;19909;-54
2021/07/12 08:10:34;;;;;;;;;;;;;;;;;;5047756;28;19997;-58
2021/07/12 08:13:00;;;;;;;;;;;;;;;;;;5040484;28;19909;-58
2021/07/12 08:15:26;;;;;;;;;;;;;;;;;;5034521;28;19952;-59
2021/07/12 08:17:52;;;;;;;;;;;;;;;;;;5044968;28;19905;-52
2021/07/12 08:20:18;;;;;;;;;;;;;;;;;;5042289;28;19995;-61
2021/07/12 08:22:44;;;;;;;;;;;;;;;;;;5036020;28;20341;-54
2021/07/12 08:25:10;;;;;;;;;;;;;;;;;;5039334;28;19905;-54
2021/07/12 08:27:39;;;;;;;;;;;;;;;;;;5034649;28;20015;-59
2021/07/12 08:30:04;;;;;;;;;;;;;;;;;;5036263;28;19937;-58
2021/07/12 08:32:30;;;;;;;;;;;;;;;;;;5033804;28;20348;-58
2021/07/12 08:34:59;;;;;;;;;;;;;;;;;;5045617;28;19909;-60
2021/07/12 08:37:25;;;;;;;;;;;;;;;;;;5018180;28;20002;-58
2021/07/12 08:39:51;;;;;;;;;;;;;;;;;;5030282;28;20473;-56
2021/07/12 08:42:19;;;;;;;;;;;;;;;;;;5033990;28;19909;-54
2021/07/12 08:44:44;;;;;;;;;;;;;;;;;;5004939;28;19991;-56
2021/07/12 08:47:10;;;;;;;;;;;;;;;;;;5038937;28;20437;-59
2021/07/12 08:49:36;;;;;;;;;;;;;;;;;;5035145;28;20254;-54
2021/07/12 08:52:02;;;;;;;;;;;;;;;;;;5020984;28;19984;-53
2021/07/12 08:54:28;;;;;;;;;;;;;;;;;;5031111;28;19939;-53
2021/07/12 08:56:54;;;;;;;;;;;;;;;;;;5046604;28;19958;-54
2021/07/12 08:59:20;;;;;;;;;;;;;;;;;;5040822;28;19909;-55
2021/07/12 09:01:46;;;;;;;;;;;;;;;;;;5042468;28;19921;-54
2021/07/12 09:04:12;;;;;;;;;;;;;;;;;;5049736;28;19939;-58
2021/07/12 09:06:38;;;;;;;;;;;;;;;;;;5052115;28;20317;-58
2021/07/12 09:09:06;;;;;;;;;;;;;;;;;;5051440;28;20284;-61
2021/07/12 09:11:32;;;;;;;;;;;;;;;;;;5051571;28;19935;-61
2021/07/12 09:13:58;;;;;;;;;;;;;;;;;;5049810;28;19909;-62
2021/07/12 09:16:24;;;;;;;;;;;;;;;;;;5051720;28;19911;-59
2021/07/12 09:18:50;;;;;;;;;;;;;;;;;;5050505;28;20325;-61
2021/07/12 09:21:16;;;;;;;;;;;;;;;;;;5049231;28;20301;-59
2021/07/12 09:23:42;;;;;;;;;;;;;;;;;;5049837;28;20760;-59
2021/07/12 09:26:09;;;;;;;;;;;;;;;;;;5051126;28;20000;-59
2021/07/12 09:28:35;;;;;;;;;;;;;;;;;;5050214;28;19908;-57
2021/07/12 09:31:01;;;;;;;;;;;;;;;;;;5050798;28;20327;-55
2021/07/12 09:33:27;;;;;;;;;;;;;;;;;;5050345;28;19916;-59
2021/07/12 09:35:53;;;;;;;;;;;;;;;;;;5050420;28;19912;-59
2021/07/12 09:38:19;;;;;;;;;;;;;;;;;;5044510;28;20071;-61
2021/07/12 09:40:45;;;;;;;;;;;;;;;;;;5045028;28;19905;-63
2021/07/12 09:43:11;;;;;;;;;;;;;;;;;;5050405;28;19905;-63
2021/07/12 09:45:38;;;;;;;;;;;;;;;;;;5050361;28;20000;-65
2021/07/12 09:48:04;;;;;;;;;;;;;;;;;;5050229;28;19905;-69
2021/07/12 09:50:30;;;;;;;;;;;;;;;;;;5050948;28;19909;-66
2021/07/12 09:52:56;;;;;;;;;;;;;;;;;;5050944;28;19959;-64
2021/07/12 09:55:22;;;;;;;;;;;;;;;;;;5049305;28;20349;-61
2021/07/12 09:57:48;;;;;;;;;;;;;;;;;;5049979;28;19909;-61
2021/07/12 10:00:14;;;;;;;;;;;;;;;;;;5048508;28;19913;-60
2021/07/12 10:02:40;;;;;;;;;;;;;;;;;;5049500;28;19952;-70
2021/07/12 10:05:09;;;;;;;;;;;;;;;;;;5047639;28;19905;-65
2021/07/12 10:07:35;;;;;;;;;;;;;;;;;;5042439;28;19907;-62
2021/07/12 10:10:01;;;;;;;;;;;;;;;;;;5045209;28;19905;-64
2021/07/12 10:12:27;;;;;;;;;;;;;;;;;;5049230;28;20012;-63
2021/07/12 10:14:54;;;;;;;;;;;;;;;;;;5045453;28;19955;-62
2021/07/12 10:17:20;;;;;;;;;;;;;;;;;;5048086;28;19966;-63
2021/07/12 10:19:46;;;;;;;;;;;;;;;;;;5046965;28;19994;-64
2021/07/12 10:22:12;;;;;;;;;;;;;;;;;;5047432;28;19905;-62
2021/07/12 10:24:38;;;;;;;;;;;;;;;;;;5046348;28;19913;-63
2021/07/12 10:27:04;;;;;;;;;;;;;;;;;;5049198;28;19920;-63
2021/07/12 10:29:30;;;;;;;;;;;;;;;;;;5048035;28;19905;-62
2021/07/12 10:31:56;;;;;;;;;;;;;;;;;;5047520;28;19955;-62
2021/07/12 10:34:22;;;;;;;;;;;;;;;;;;5046796;28;19905;-63
2021/07/12 10:36:48;;;;;;;;;;;;;;;;;;5049320;28;19904;-66
2021/07/12 10:39:14;;;;;;;;;;;;;;;;;;5048262;28;19958;-64
2021/07/12 10:41:40;;;;;;;;;;;;;;;;;;5046627;28;19944;-62
2021/07/12 10:44:06;;;;;;;;;;;;;;;;;;5047774;28;19912;-64
2021/07/12 10:46:32;;;;;;;;;;;;;;;;;;5048119;28;19905;-67
2021/07/12 10:48:58;;;;;;;;;;;;;;;;;;5049528;28;19962;-64
2021/07/12 10:51:24;;;;;;;;;;;;;;;;;;5048713;28;19987;-70
2021/07/12 10:53:50;;;;;;;;;;;;;;;;;;5044671;28;19921;-66
2021/07/12 10:56:16;;;;;;;;;;;;;;;;;;5049770;28;19904;-67
2021/07/12 10:58:43;;;;;;;;;;;;;;;;;;5049470;28;20356;-66
2021/07/12 11:01:11;;;;;;;;;;;;;;;;;;5047980;28;20031;-66
2021/07/12 11:03:37;;;;;;;;;;;;;;;;;;5048469;28;19913;-67
2021/07/12 11:06:03;;;;;;;;;;;;;;;;;;5048770;28;20017;-71
2021/07/12 11:08:29;;;;;;;;;;;;;;;;;;5049547;28;19905;-63
2021/07/12 11:10:55;;;;;;;;;;;;;;;;;;5041516;28;20381;-71
2021/07/12 11:13:21;;;;;;;;;;;;;;;;;;5050242;28;19904;-67
2021/07/12 11:15:47;;;;;;;;;;;;;;;;;;5048931;28;20011;-69
2021/07/12 11:18:13;;;;;;;;;;;;;;;;;;5049241;28;20384;-68
2021/07/12 11:20:39;;;;;;;;;;;;;;;;;;5050689;28;19912;-70
2021/07/12 11:23:05;;;;;;;;;;;;;;;;;;5053349;28;19912;-66
2021/07/12 11:25:31;;;;;;;;;;;;;;;;;;5052078;28;19935;-67
2021/07/12 11:27:57;;;;;;;;;;;;;;;;;;5052400;28;19908;-66
2021/07/12 11:30:23;;;;;;;;;;;;;;;;;;5053294;28;19979;-67
2021/07/12 11:32:49;;;;;;;;;;;;;;;;;;5052543;28;20110;-68
2021/07/12 11:35:15;;;;;;;;;;;;;;;;;;5052628;28;20032;-68
2021/07/12 11:37:41;;;;;;;;;;;;;;;;;;5051599;28;19944;-66
2021/07/12 11:40:07;;;;;;;;;;;;;;;;;;5052876;28;20361;-65
2021/07/12 11:42:35;;;;;;;;;;;;;;;;;;5052170;28;19905;-65
2021/07/12 11:45:02;;;;;;;;;;;;;;;;;;5051500;28;19935;-65
2021/07/12 11:47:28;;;;;;;;;;;;;;;;;;5051217;28;20392;-65
2021/07/12 11:49:54;;;;;;;;;;;;;;;;;;5052212;28;19967;-65
2021/07/12 11:52:20;;;;;;;;;;;;;;;;;;5052481;28;19956;-65
2021/07/12 11:54:46;;;;;;;;;;;;;;;;;;5052855;28;19905;-65
2021/07/12 11:57:12;;;;;;;;;;;;;;;;;;5052203;28;19905;-65
2021/07/12 11:59:38;;;;;;;;;;;;;;;;;;5052417;28;20024;-63
2021/07/12 12:02:07;;;;;;;;;;;;;;;;;;5051601;28;20046;-64
2021/07/12 12:04:33;;;;;;;;;;;;;;;;;;5052130;28;19904;-64
2021/07/12 12:06:59;;;;;;;;;;;;;;;;;;5052679;28;19927;-64
2021/07/12 12:09:25;;;;;;;;;;;;;;;;;;5052550;28;19970;-64
2021/07/12 12:11:51;;;;;;;;;;;;;;;;;;5051749;28;19953;-63
2021/07/12 12:14:17;;;;;;;;;;;;;;;;;;5052442;28;19947;-66
2021/07/12 12:16:44;;;;;;;;;;;;;;;;;;5051781;28;19967;-67
2021/07/12 12:19:10;;;;;;;;;;;;;;;;;;5049905;28;19927;-66
2021/07/12 12:21:38;;;;;;;;;;;;;;;;;;5052125;28;20373;-66
2021/07/12 12:24:04;;;;;;;;;;;;;;;;;;5050994;28;19908;-65
2021/07/12 12:26:30;;;;;;;;;;;;;;;;;;5052085;28;19912;-65
2021/07/12 12:28:56;;;;;;;;;;;;;;;;;;5051994;28;19913;-66
2021/07/12 12:31:22;;;;;;;;;;;;;;;;;;5051973;28;19967;-65
2021/07/12 12:33:48;;;;;;;;;;;;;;;;;;5052082;28;20187;-67
2021/07/12 12:36:14;;;;;;;;;;;;;;;;;;5052409;28;20001;-66
2021/07/12 12:38:40;;;;;;;;;;;;;;;;;;5050549;28;19928;-66
2021/07/12 12:41:08;;;;;;;;;;;;;;;;;;5052013;28;20402;-65
2021/07/12 12:43:34;;;;;;;;;;;;;;;;;;5052116;28;19905;-66
2021/07/12 12:46:00;;;;;;;;;;;;;;;;;;5051260;28;20358;-66
2021/07/12 12:48:26;;;;;;;;;;;;;;;;;;5051820;28;19983;-66
2021/07/12 12:50:52;;;;;;;;;;;;;;;;;;5051589;28;19909;-67
2021/07/12 12:53:18;;;;;;;;;;;;;;;;;;5050224;28;19913;-67
2021/07/12 12:55:44;;;;;;;;;;;;;;;;;;5050768;28;19915;-66
2021/07/12 12:58:10;;;;;;;;;;;;;;;;;;5051262;28;19923;-67
2021/07/12 13:00:36;;;;;;;;;;;;;;;;;;5050309;28;19913;-66
2021/07/12 13:03:02;;;;;;;;;;;;;;;;;;5032599;28;20246;-65
2021/07/12 13:05:28;;;;;;;;;;;;;;;;;;5031706;28;19920;-65
2021/07/12 13:07:54;;;;;;;;;;;;;;;;;;5031045;28;19909;-66
2021/07/12 13:10:21;;;;;;;;;;;;;;;;;;5031148;28;19966;-67
2021/07/12 13:12:50;;;;;;;;;;;;;;;;;;5031450;28;19956;-66
2021/07/12 13:15:16;;;;;;;;;;;;;;;;;;5031159;28;19909;-66
2021/07/12 13:17:42;;;;;;;;;;;;;;;;;;5031723;28;19990;-65
2021/07/12 13:20:08;;;;;;;;;;;;;;;;;;5031423;28;20040;-68
2021/07/12 13:22:34;;;;;;;;;;;;;;;;;;5030345;28;20003;-60
2021/07/12 13:25:00;;;;;;;;;;;;;;;;;;5030915;28;19909;-65
2021/07/12 13:27:26;;;;;;;;;;;;;;;;;;5031125;28;19995;-71
2021/07/12 13:29:52;;;;;;;;;;;;;;;;;;5031356;28;19912;-70
2021/07/12 13:32:17;;;;;;;;;;;;;;;;;;5030908;28;19944;-72
2021/07/12 13:34:43;;;;;;;;;;;;;;;;;;5031058;28;20000;-63
2021/07/12 13:37:09;;;;;;;;;;;;;;;;;;5030463;28;20380;-68
2021/07/12 13:39:35;;;;;;;;;;;;;;;;;;5029992;28;19917;-69
2021/07/12 13:42:01;;;;;;;;;;;;;;;;;;5028751;28;20018;-70
2021/07/12 13:44:27;;;;;;;;;;;;;;;;;;5029588;28;19916;-64
2021/07/12 13:46:53;;;;;;;;;;;;;;;;;;5030239;28;19961;-71
2021/07/12 13:49:19;;;;;;;;;;;;;;;;;;5030002;28;20002;-66
2021/07/12 13:51:45;;;;;;;;;;;;;;;;;;5030388;28;19948;-64
2021/07/12 13:54:11;;;;;;;;;;;;;;;;;;5030445;28;20331;-67
2021/07/12 13:56:37;;;;;;;;;;;;;;;;;;5029807;28;19916;-65
2021/07/12 13:59:03;;;;;;;;;;;;;;;;;;5028783;28;19944;-63
2021/07/12 14:01:29;;;;;;;;;;;;;;;;;;5043751;28;19955;-66
2021/07/12 14:03:55;;;;;;;;;;;;;;;;;;5049659;28;20385;-62
2021/07/12 14:06:21;;;;;;;;;;;;;;;;;;5049343;28;19999;-63
2021/07/12 14:08:47;;;;;;;;;;;;;;;;;;5048009;28;20019;-67
2021/07/12 14:11:13;;;;;;;;;;;;;;;;;;5048807;28;19955;-64
2021/07/12 14:13:38;;;;;;;;;;;;;;;;;;5050358;28;20369;-61
2021/07/12 14:16:06;;;;;;;;;;;;;;;;;;5050247;28;20264;-60
2021/07/12 14:18:31;;;;;;;;;;;;;;;;;;5050190;28;19915;-68
2021/07/12 14:20:57;;;;;;;;;;;;;;;;;;5047772;28;19999;-67
2021/07/12 14:23:24;;;;;;;;;;;;;;;;;;5050003;28;19994;-71
2021/07/12 14:25:50;;;;;;;;;;;;;;;;;;5048920;28;19927;-71
2021/07/12 14:28:16;;;;;;;;;;;;;;;;;;5048456;28;19905;-72
2021/07/12 14:30:45;;;;;;;;;;;;;;;;;;5048984;28;20360;-71
2021/07/12 14:33:11;;;;;;;;;;;;;;;;;;5040578;28;19916;-69
2021/07/12 14:35:37;;;;;;;;;;;;;;;;;;5039308;28;19904;-72
2021/07/12 14:38:03;;;;;;;;;;;;;;;;;;5049970;28;20387;-69
2021/07/12 14:40:29;;;;;;;;;;;;;;;;;;5049850;28;20004;-69
2021/07/12 14:42:55;;;;;;;;;;;;;;;;;;5049567;28;19970;-67
2021/07/12 14:45:21;;;;;;;;;;;;;;;;;;5049506;28;19927;-68
2021/07/12 14:47:47;;;;;;;;;;;;;;;;;;5049932;28;20395;-68
2021/07/12 14:50:13;;;;;;;;;;;;;;;;;;5050038;28;19905;-68
2021/07/12 14:52:39;;;;;;;;;;;;;;;;;;5050012;28;19996;-68
2021/07/12 14:55:05;;;;;;;;;;;;;;;;;;5050933;28;19957;-67
2021/07/12 14:57:31;;;;;;;;;;;;;;;;;;5052077;28;19912;-66
2021/07/12 14:59:57;;;;;;;;;;;;;;;;;;5048792;28;19974;-68
2021/07/12 15:02:23;;;;;;;;;;;;;;;;;;5052892;28;19924;-69
2021/07/12 15:04:49;;;;;;;;;;;;;;;;;;5052710;28;20283;-69
2021/07/12 15:07:15;;;;;;;;;;;;;;;;;;5049805;28;19909;-67
2021/07/12 15:09:41;;;;;;;;;;;;;;;;;;5052659;28;19936;-70
2021/07/12 15:12:07;;;;;;;;;;;;;;;;;;5053417;28;20368;-69
2021/07/12 15:14:33;;;;;;;;;;;;;;;;;;5052967;28;20300;-69
2021/07/12 15:16:59;;;;;;;;;;;;;;;;;;5052046;28;19935;-67
2021/07/12 15:19:25;;;;;;;;;;;;;;;;;;5052326;28;20261;-68
2021/07/12 15:21:52;;;;;;;;;;;;;;;;;;5053159;28;20010;-68
2021/07/12 15:24:20;;;;;;;;;;;;;;;;;;5052449;28;19909;-69
2021/07/12 15:26:46;;;;;;;;;;;;;;;;;;5051611;28;19905;-68
2021/07/12 15:29:11;;;;;;;;;;;;;;;;;;5045966;28;19912;-60
2021/07/12 15:31:40;;;;;;;;;;;;;;;;;;5047008;28;19940;-64
2021/07/12 15:34:06;;;;;;;;;;;;;;;;;;5050296;28;19913;-62
2021/07/12 15:36:33;;;;;;;;;;;;;;;;;;5044648;28;20359;-63
2021/07/12 15:38:58;;;;;;;;;;;;;;;;;;5052649;28;20401;-64
2021/07/12 15:41:24;;;;;;;;;;;;;;;;;;5052941;28;19951;-62
2021/07/12 15:43:50;;;;;;;;;;;;;;;;;;5052760;28;20288;-62
2021/07/12 15:46:16;;;;;;;;;;;;;;;;;;5052339;28;19984;-61
2021/07/12 15:48:42;;;;;;;;;;;;;;;;;;5052720;28;19985;-61
2021/07/12 15:51:08;;;;;;;;;;;;;;;;;;5052078;28;20120;-61
2021/07/12 15:53:36;;;;;;;;;;;;;;;;;;5052145;28;19909;-62
2021/07/12 15:56:02;;;;;;;;;;;;;;;;;;5052752;28;19950;-61
2021/07/12 15:58:31;;;;;;;;;;;;;;;;;;5051197;28;20017;-62
2021/07/12 16:00:57;;;;;;;;;;;;;;;;;;5052025;28;19924;-62
2021/07/12 16:03:23;;;;;;;;;;;;;;;;;;5052157;28;19955;-62
2021/07/12 16:05:49;;;;;;;;;;;;;;;;;;5051383;28;19967;-61
2021/07/12 16:08:15;;;;;;;;;;;;;;;;;;5052020;28;19965;-61
2021/07/12 16:10:44;;;;;;;;;;;;;;;;;;5051543;28;19999;-61
2021/07/12 16:13:10;;;;;;;;;;;;;;;;;;5051482;28;19917;-60
2021/07/12 16:15:36;;;;;;;;;;;;;;;;;;5052553;28;19905;-61
2021/07/12 16:18:02;;;;;;;;;;;;;;;;;;5052395;28;19962;-61
2021/07/12 16:20:28;;;;;;;;;;;;;;;;;;5052547;28;19915;-62
2021/07/12 16:22:54;;;;;;;;;;;;;;;;;;5051417;28;19995;-62
2021/07/12 16:25:20;;;;;;;;;;;;;;;;;;5052430;28;19971;-62
2021/07/12 16:27:48;;;;;;;;;;;;;;;;;;5052593;28;20376;-62
2021/07/12 16:30:14;;;;;;;;;;;;;;;;;;5052677;28;19911;-62
2021/07/12 16:32:40;;;;;;;;;;;;;;;;;;5052395;28;20290;-62
2021/07/12 16:35:06;;;;;;;;;;;;;;;;;;5046115;28;19905;-62
2021/07/12 16:37:32;;;;;;;;;;;;;;;;;;5052398;28;19934;-61
2021/07/12 16:39:58;;;;;;;;;;;;;;;;;;5051872;28;19916;-62
2021/07/12 16:42:24;;;;;;;;;;;;;;;;;;5052610;28;19991;-61
2021/07/12 16:44:50;;;;;;;;;;;;;;;;;;5051877;28;20066;-61
2021/07/12 16:47:20;;;;;;;;;;;;;;;;;;5052506;28;19905;-61
2021/07/12 16:49:46;;;;;;;;;;;;;;;;;;5039421;28;19905;-61
2021/07/12 16:52:15;;;;;;;;;;;;;;;;;;5051406;28;19958;-62
2021/07/12 16:54:41;;;;;;;;;;;;;;;;;;5051432;28;19975;-61
2021/07/12 16:57:07;;;;;;;;;;;;;;;;;;5050498;28;19944;-61
2021/07/12 16:59:33;;;;;;;;;;;;;;;;;;5051672;28;19912;-61
2021/07/12 17:01:59;;;;;;;;;;;;;;;;;;5051290;28;19924;-61
2021/07/12 17:04:27;;;;;;;;;;;;;;;;;;5051935;28;19912;-61
2021/07/12 17:06:56;;;;;;;;;;;;;;;;;;5051679;28;20288;-61
2021/07/12 17:09:22;;;;;;;;;;;;;;;;;;5051238;28;19908;-61
2021/07/12 17:11:50;;;;;;;;;;;;;;;;;;5051289;28;19947;-60
2021/07/12 17:14:16;;;;;;;;;;;;;;;;;;5050999;28;19909;-61
2021/07/12 17:16:41;;;;;;;;;;;;;;;;;;5050579;28;19978;-61
2021/07/12 17:19:07;;;;;;;;;;;;;;;;;;5047048;28;19927;-60
2021/07/12 17:21:33;;;;;;;;;;;;;;;;;;5051020;28;19904;-61
2021/07/12 17:23:59;;;;;;;;;;;;;;;;;;5050096;28;20381;-61
2021/07/12 17:26:25;;;;;;;;;;;;;;;;;;5051288;28;19939;-61
2021/07/12 17:28:51;;;;;;;;;;;;;;;;;;5051864;28;20317;-61
2021/07/12 17:31:20;;;;;;;;;;;;;;;;;;5051506;28;19909;-61
2021/07/12 17:33:49;;;;;;;;;;;;;;;;;;5051315;28;20014;-61
2021/07/12 17:36:17;;;;;;;;;;;;;;;;;;5050293;28;19908;-61
2021/07/12 17:38:43;;;;;;;;;;;;;;;;;;5050623;28;20011;-61
2021/07/12 17:41:09;;;;;;;;;;;;;;;;;;5051418;28;19953;-60
2021/07/12 17:43:35;;;;;;;;;;;;;;;;;;5049633;28;19920;-61
2021/07/12 17:46:01;;;;;;;;;;;;;;;;;;5050455;28;19908;-60
2021/07/12 17:48:27;;;;;;;;;;;;;;;;;;5051008;28;19924;-59
2021/07/12 17:50:53;;;;;;;;;;;;;;;;;;5050755;28;19979;-59
2021/07/12 17:53:19;;;;;;;;;;;;;;;;;;5050841;28;20507;-59
2021/07/12 17:55:45;;;;;;;;;;;;;;;;;;5050989;28;19940;-59
2021/07/12 17:58:11;;;;;;;;;;;;;;;;;;5050165;28;19908;-59
2021/07/12 18:00:37;;;;;;;;;;;;;;;;;;5050794;28;19912;-59
2021/07/12 18:03:02;;;;;;;;;;;;;;;;;;5044696;28;19955;-59
2021/07/12 18:05:31;;;;;;;;;;;;;;;;;;5045414;28;20258;-59
2021/07/12 18:07:58;;;;;;;;;;;;;;;;;;5044027;28;19904;-59
2021/07/12 18:10:24;;;;;;;;;;;;;;;;;;5049337;28;19928;-59
2021/07/12 18:12:50;;;;;;;;;;;;;;;;;;5048577;28;20312;-59
2021/07/12 18:15:18;;;;;;;;;;;;;;;;;;5048888;28;19928;-59
2021/07/12 18:17:47;;;;;;;;;;;;;;;;;;5049098;28;20007;-59
2021/07/12 18:20:15;;;;;;;;;;;;;;;;;;5050219;28;19904;-58
2021/07/12 18:22:41;;;;;;;;;;;;;;;;;;5048866;28;19917;-59
2021/07/12 18:25:07;;;;;;;;;;;;;;;;;;5050462;28;19905;-59
2021/07/12 18:27:33;;;;;;;;;;;;;;;;;;5050257;28;19936;-59
2021/07/12 18:30:02;;;;;;;;;;;;;;;;;;5052954;28;19915;-59
2021/07/12 18:32:28;;;;;;;;;;;;;;;;;;5054501;28;19958;-59
2021/07/12 18:34:54;;;;;;;;;;;;;;;;;;5046429;28;19909;-59
2021/07/12 18:37:20;;;;;;;;;;;;;;;;;;5052456;28;19967;-59
2021/07/12 18:39:46;;;;;;;;;;;;;;;;;;5053808;28;19916;-59
2021/07/12 18:42:12;;;;;;;;;;;;;;;;;;5050319;28;19905;-59
2021/07/12 18:44:38;;;;;;;;;;;;;;;;;;5048950;28;19911;-58
2021/07/12 18:47:05;;;;;;;;;;;;;;;;;;5052853;28;20288;-59
2021/07/12 18:49:32;;;;;;;;;;;;;;;;;;5053779;28;19916;-58
2021/07/12 18:51:58;;;;;;;;;;;;;;;;;;5043418;28;20309;-59
2021/07/12 18:54:24;;;;;;;;;;;;;;;;;;5052488;28;19968;-59
2021/07/12 18:56:50;;;;;;;;;;;;;;;;;;5053101;28;19999;-59
2021/07/12 18:59:16;;;;;;;;;;;;;;;;;;5050899;28;19951;-60
2021/07/12 19:01:42;;;;;;;;;;;;;;;;;;5053921;28;20396;-59
2021/07/12 19:04:08;;;;;;;;;;;;;;;;;;5053479;28;19951;-59
2021/07/12 19:06:36;;;;;;;;;;;;;;;;;;5053628;28;19908;-60
2021/07/12 19:09:02;;;;;;;;;;;;;;;;;;5052405;28;20281;-58
2021/07/12 19:11:28;;;;;;;;;;;;;;;;;;5047160;28;19960;-60
2021/07/12 19:13:54;;;;;;;;;;;;;;;;;;5052722;28;20289;-60
2021/07/12 19:16:20;;;;;;;;;;;;;;;;;;5053042;28;19995;-60
2021/07/12 19:18:46;;;;;;;;;;;;;;;;;;5053562;28;20293;-59
2021/07/12 19:21:14;;;;;;;;;;;;;;;;;;5053212;28;20336;-60
2021/07/12 19:23:40;;;;;;;;;;;;;;;;;;5052389;28;20258;-60
2021/07/12 19:26:06;;;;;;;;;;;;;;;;;;5051877;28;19915;-59
2021/07/12 19:28:34;;;;;;;;;;;;;;;;;;5052329;28;20391;-59
2021/07/12 19:31:02;;;;;;;;;;;;;;;;;;5053877;28;19909;-60
2021/07/12 19:33:30;;;;;;;;;;;;;;;;;;5053480;28;19927;-57
2021/07/12 19:35:56;;;;;;;;;;;;;;;;;;5051620;28;19923;-57
2021/07/12 19:38:25;;;;;;;;;;;;;;;;;;5052960;28;19904;-53
2021/07/12 19:40:53;;;;;;;;;;;;;;;;;;5052594;28;19909;-58
2021/07/12 19:43:22;;;;;;;;;;;;;;;;;;5052043;28;20006;-58
2021/07/12 19:45:48;;;;;;;;;;;;;;;;;;5052669;28;19904;-57
2021/07/12 19:48:14;;;;;;;;;;;;;;;;;;5052177;28;20000;-57
2021/07/12 19:50:43;;;;;;;;;;;;;;;;;;5052718;28;19924;-58
2021/07/12 19:53:09;;;;;;;;;;;;;;;;;;5051481;28;20020;-60
2021/07/12 19:55:35;;;;;;;;;;;;;;;;;;5052617;28;20003;-59
2021/07/12 19:58:01;;;;;;;;;;;;;;;;;;5052284;28;20003;-59
2021/07/12 20:00:30;;;;;;;;;;;;;;;;;;5053107;28;20530;-59
2021/07/12 20:02:56;;;;;;;;;;;;;;;;;;5052776;28;19917;-58
2021/07/12 20:05:23;;;;;;;;;;;;;;;;;;5052835;28;20226;-57
2021/07/12 20:07:49;;;;;;;;;;;;;;;;;;5052016;28;20331;-57
2021/07/12 20:10:15;;;;;;;;;;;;;;;;;;5051918;28;19908;-59
2021/07/12 20:12:43;;;;;;;;;;;;;;;;;;5052395;28;19970;-59
2021/07/12 20:15:12;;;;;;;;;;;;;;;;;;5039332;28;20243;-57
2021/07/12 20:17:39;;;;;;;;;;;;;;;;;;5043115;28;20020;-57
2021/07/12 20:20:05;;;;;;;;;;;;;;;;;;5048380;28;19913;-58
2021/07/12 20:22:32;;;;;;;;;;;;;;;;;;5047521;28;19919;-58
2021/07/12 20:24:58;;;;;;;;;;;;;;;;;;5048471;28;19927;-58
2021/07/12 20:27:25;;;;;;;;;;;;;;;;;;5049033;28;20039;-58
2021/07/12 20:29:51;;;;;;;;;;;;;;;;;;5051124;28;19999;-58
2021/07/12 20:32:17;;;;;;;;;;;;;;;;;;5050383;28;20359;-58
2021/07/12 20:34:43;;;;;;;;;;;;;;;;;;5048236;28;19919;-58
2021/07/12 20:37:09;;;;;;;;;;;;;;;;;;5049460;28;19947;-58
2021/07/12 20:39:35;;;;;;;;;;;;;;;;;;5050821;28;20368;-58
2021/07/12 20:42:01;;;;;;;;;;;;;;;;;;5051949;28;20557;-57
2021/07/12 20:44:27;;;;;;;;;;;;;;;;;;5048715;28;19908;-57
2021/07/12 20:46:53;;;;;;;;;;;;;;;;;;5050511;28;20442;-59
2021/07/12 20:49:19;;;;;;;;;;;;;;;;;;5048724;28;19991;-57
2021/07/12 20:51:45;;;;;;;;;;;;;;;;;;5050745;28;19959;-61
2021/07/12 20:54:11;;;;;;;;;;;;;;;;;;5049436;28;19943;-59
2021/07/12 20:56:37;;;;;;;;;;;;;;;;;;5049973;28;19935;-59
2021/07/12 20:59:03;;;;;;;;;;;;;;;;;;5049820;28;19944;-66
2021/07/12 21:01:31;;;;;;;;;;;;;;;;;;5046853;28;20015;-60
2021/07/12 21:03:57;;;;;;;;;;;;;;;;;;5031290;28;19909;-60
2021/07/12 21:06:23;;;;;;;;;;;;;;;;;;5012810;28;19905;-61
2021/07/12 21:08:49;;;;;;;;;;;;;;;;;;5031503;28;20017;-61
2021/07/12 21:11:15;;;;;;;;;;;;;;;;;;5027438;28;20219;-60
2021/07/12 21:13:41;;;;;;;;;;;;;;;;;;5013310;28;19905;-61
2021/07/12 21:16:07;;;;;;;;;;;;;;;;;;5012357;28;19971;-60
2021/07/12 21:18:34;;;;;;;;;;;;;;;;;;5031342;28;19905;-58
2021/07/12 21:21:00;;;;;;;;;;;;;;;;;;5031121;28;20313;-59
2021/07/12 21:23:28;;;;;;;;;;;;;;;;;;5031059;28;19905;-59
2021/07/12 21:25:54;;;;;;;;;;;;;;;;;;5031097;28;19951;-59
2021/07/12 21:28:23;;;;;;;;;;;;;;;;;;5029932;28;19909;-59
2021/07/12 21:30:50;;;;;;;;;;;;;;;;;;5030768;28;19909;-60
2021/07/12 21:33:16;;;;;;;;;;;;;;;;;;5026996;28;20333;-60
2021/07/12 21:35:42;;;;;;;;;;;;;;;;;;5028015;28;20004;-60
2021/07/12 21:38:08;;;;;;;;;;;;;;;;;;5029412;28;19917;-60
